Time;durP1;ratioP1;P1;durP2;ratioP2;P2;SDS_P1;SDS_P2;PMS_P1;PMS_P2;Temp;Humidity;BMP_temperature;BMP_pressure;BME280_temperature;BME280_humidity;BME280_pressure;Samples;Min_cycle;Max_cycle;Signal;HPM_P1;HPM_P2
2022/09/03 00:00:36;;;;;;;11.10;3.30;;;11.70;99.90;;;;;;4735210;30;20213;-76
2022/09/03 00:03:14;;;;;;;6.57;3.20;;;11.70;99.90;;;;;;4749982;30;20638;-75
2022/09/03 00:05:47;;;;;;;8.63;3.50;;;11.70;99.90;;;;;;4735106;30;20323;-75
2022/09/03 00:08:23;;;;;;;6.80;3.40;;;11.60;99.90;;;;;;4735128;30;20236;-76
2022/09/03 00:10:54;;;;;;;6.97;3.30;;;11.60;99.90;;;;;;4749878;30;20271;-75
2022/09/03 00:13:28;;;;;;;8.00;3.30;;;11.60;99.90;;;;;;4734985;30;20202;-75
2022/09/03 00:15:56;;;;;;;4.97;3.00;;;11.60;99.90;;;;;;4735201;30;20210;-76
2022/09/03 00:18:29;;;;;;;6.57;3.07;;;11.60;99.90;;;;;;4749896;30;20232;-76
2022/09/03 00:21:21;;;;;;;6.97;3.50;;;11.60;99.90;;;;;;4749525;30;20205;-76
2022/09/03 00:23:50;;;;;;;5.30;3.40;;;11.60;99.90;;;;;;4749697;30;20214;-76
2022/09/03 00:26:27;;;;;;;10.60;3.90;;;11.60;99.90;;;;;;4749555;30;20237;-76
2022/09/03 00:29:14;;;;;;;7.43;3.53;;;11.50;99.90;;;;;;4749461;30;20216;-76
2022/09/03 00:31:50;;;;;;;5.73;3.17;;;11.50;99.90;;;;;;4749752;30;20235;-76
2022/09/03 00:34:31;;;;;;;4.77;3.17;;;11.40;99.90;;;;;;4734847;30;20209;-76
2022/09/03 00:36:58;;;;;;;5.30;3.20;;;11.30;99.90;;;;;;4778342;29;20558;-77
2022/09/03 00:39:26;;;;;;;8.73;3.23;;;11.30;99.90;;;;;;4788898;29;20214;-76
2022/09/03 00:42:32;;;;;;;5.53;2.90;;;11.30;99.90;;;;;;4788976;29;20220;-76
2022/09/03 00:45:11;;;;;;;12.50;4.07;;;11.30;99.90;;;;;;4734906;30;20304;-76
2022/09/03 00:48:15;;;;;;;15.70;3.83;;;11.20;99.90;;;;;;4737619;30;20671;-78
2022/09/03 00:51:12;;;;;;;7.73;3.13;;;11.20;99.90;;;;;;4737792;30;20241;-77
2022/09/03 00:53:51;;;;;;;5.43;3.00;;;11.20;99.90;;;;;;4753018;30;20223;-76
2022/09/03 00:56:41;;;;;;;6.80;3.20;;;11.10;99.90;;;;;;4737824;30;20213;-76
2022/09/03 00:59:10;;;;;;;5.97;3.20;;;11.10;99.90;;;;;;4702814;30;20203;-75
2022/09/03 01:01:44;;;;;;;7.30;2.83;;;11.10;99.90;;;;;;4702797;30;20218;-76
2022/09/03 01:04:23;;;;;;;6.70;3.43;;;11.10;99.90;;;;;;4702822;30;20210;-77
2022/09/03 01:07:01;;;;;;;6.30;3.20;;;11.00;99.90;;;;;;4703002;30;20234;-77
2022/09/03 01:09:36;;;;;;;7.57;3.97;;;11.00;99.90;;;;;;4702705;30;20218;-77
2022/09/03 01:12:15;;;;;;;7.00;3.77;;;10.90;99.90;;;;;;4702596;30;20211;-76
2022/09/03 01:15:00;;;;;;;9.47;3.63;;;10.90;99.90;;;;;;4702574;30;20597;-77
2022/09/03 01:17:32;;;;;;;10.07;3.80;;;10.90;99.90;;;;;;4702879;30;20221;-78
2022/09/03 01:20:23;;;;;;;9.60;4.10;;;10.90;99.90;;;;;;4702520;30;20225;-78
2022/09/03 01:23:24;;;;;;;9.47;4.07;;;10.80;99.90;;;;;;4716777;30;20632;-76
2022/09/03 01:26:23;;;;;;;8.27;3.63;;;10.80;99.90;;;;;;4702308;30;20253;-77
2022/09/03 01:29:06;;;;;;;6.83;4.00;;;10.80;99.90;;;;;;4698916;30;20655;-77
2022/09/03 01:32:09;;;;;;;6.37;3.50;;;10.70;99.90;;;;;;4702476;30;20685;-77
2022/09/03 01:35:11;;;;;;;8.53;4.13;;;10.60;99.90;;;;;;4702252;30;20206;-77
2022/09/03 01:37:47;;;;;;;8.17;4.03;;;10.60;99.90;;;;;;4717117;30;20404;-76
2022/09/03 01:40:53;;;;;;;6.67;3.73;;;10.60;99.90;;;;;;4716732;30;20264;-77
2022/09/03 01:43:21;;;;;;;6.83;3.70;;;10.50;99.90;;;;;;4716503;30;20317;-76
2022/09/03 01:46:02;;;;;;;10.47;4.33;;;10.50;99.90;;;;;;4702559;30;20253;-76
2022/09/03 01:48:39;;;;;;;8.40;4.07;;;10.50;99.90;;;;;;4702066;30;20219;-75
2022/09/03 01:51:19;;;;;;;10.50;3.83;;;10.40;99.90;;;;;;4716365;30;20643;-76
2022/09/03 01:54:02;;;;;;;6.87;3.80;;;10.40;99.90;;;;;;4716451;30;20294;-77
2022/09/03 01:56:59;;;;;;;8.13;3.90;;;10.30;99.90;;;;;;4702362;30;20221;-76
2022/09/03 01:59:34;;;;;;;7.63;3.70;;;10.30;99.90;;;;;;4701364;30;20211;-77
2022/09/03 02:02:06;;;;;;;7.97;3.50;;;10.20;99.90;;;;;;4726862;30;20213;-77
2022/09/03 02:04:33;;;;;;;6.13;3.77;;;10.20;99.90;;;;;;4736959;30;20214;-76
2022/09/03 02:07:01;;;;;;;10.13;3.47;;;10.10;99.90;;;;;;4736841;30;20248;-77
2022/09/03 02:09:29;;;;;;;6.73;3.47;;;10.10;99.90;;;;;;4736876;30;20228;-76
2022/09/03 02:12:10;;;;;;;10.13;3.60;;;10.10;99.90;;;;;;4736780;30;20305;-77
2022/09/03 02:14:37;;;;;;;6.23;3.60;;;10.10;99.90;;;;;;4806960;29;20670;-77
2022/09/03 02:17:05;;;;;;;13.73;3.80;;;10.00;99.90;;;;;;4790738;29;20215;-78
2022/09/03 02:19:33;;;;;;;10.73;3.63;;;10.00;99.90;;;;;;4790706;29;20538;-77
2022/09/03 02:22:00;;;;;;;6.87;3.50;;;9.90;99.90;;;;;;4790799;29;20203;-77
2022/09/03 02:24:27;;;;;;;9.43;3.77;;;9.90;99.90;;;;;;4790779;29;20214;-77
2022/09/03 02:26:55;;;;;;;9.23;3.70;;;9.80;99.90;;;;;;4790878;29;20224;-76
2022/09/03 02:29:24;;;;;;;7.83;3.80;;;9.80;99.90;;;;;;4790341;29;20554;-77
2022/09/03 02:31:54;;;;;;;8.20;3.60;;;9.80;99.90;;;;;;4790667;29;20220;-76
2022/09/03 02:34:21;;;;;;;6.57;3.67;;;9.80;99.90;;;;;;4790628;29;20226;-77
2022/09/03 02:36:48;;;;;;;7.03;3.70;;;9.80;99.90;;;;;;4790687;29;20212;-76
2022/09/03 02:39:17;;;;;;;9.20;3.73;;;9.70;99.90;;;;;;4806730;29;20284;-75
2022/09/03 02:41:43;;;;;;;6.63;3.70;;;9.70;99.90;;;;;;4790422;29;20228;-76
2022/09/03 02:44:24;;;;;;;5.00;3.23;;;9.70;99.90;;;;;;4775859;29;20215;-76
2022/09/03 02:47:04;;;;;;;7.93;3.47;;;9.70;99.90;;;;;;4790352;29;20243;-76
2022/09/03 02:49:32;;;;;;;8.57;3.93;;;9.70;99.90;;;;;;4806411;29;20286;-75
2022/09/03 02:52:05;;;;;;;5.67;3.40;;;9.60;99.90;;;;;;4801035;29;20754;-77
2022/09/03 02:54:35;;;;;;;6.23;3.47;;;9.50;99.90;;;;;;4805086;29;20246;-76
2022/09/03 02:57:02;;;;;;;7.07;3.50;;;9.50;99.90;;;;;;4806398;29;20298;-76
2022/09/03 02:59:29;;;;;;;8.17;3.90;;;9.40;99.90;;;;;;4805267;29;20199;-77
2022/09/03 03:01:56;;;;;;;6.70;3.70;;;9.40;99.90;;;;;;4806066;29;20742;-76
2022/09/03 03:04:28;;;;;;;6.23;3.30;;;9.40;99.90;;;;;;4805066;29;20200;-76
2022/09/03 03:06:55;;;;;;;8.63;3.70;;;9.30;99.90;;;;;;4804694;29;20706;-75
2022/09/03 03:09:22;;;;;;;5.13;3.10;;;9.30;99.90;;;;;;4805129;29;20195;-76
2022/09/03 03:11:50;;;;;;;5.03;3.03;;;9.20;99.90;;;;;;4804739;29;20214;-77
2022/09/03 03:14:17;;;;;;;9.30;3.53;;;9.20;99.90;;;;;;4804810;29;20207;-76
2022/09/03 03:16:44;;;;;;;9.80;3.33;;;9.20;99.90;;;;;;4804703;29;20310;-76
2022/09/03 03:19:11;;;;;;;6.83;3.40;;;9.20;99.90;;;;;;4804579;29;20199;-76
2022/09/03 03:21:39;;;;;;;7.57;3.30;;;9.10;99.90;;;;;;4804393;29;20207;-76
2022/09/03 03:24:06;;;;;;;6.63;3.60;;;9.10;99.90;;;;;;4806162;29;20610;-76
2022/09/03 03:26:33;;;;;;;5.37;3.27;;;9.00;99.90;;;;;;4804587;29;20232;-77
2022/09/03 03:29:04;;;;;;;8.37;3.80;;;9.00;99.90;;;;;;4804671;29;20213;-76
2022/09/03 03:31:32;;;;;;;9.60;3.20;;;9.00;99.90;;;;;;4805635;29;20278;-76
2022/09/03 03:34:03;;;;;;;6.87;3.40;;;9.00;99.90;;;;;;4804856;29;20651;-76
2022/09/03 03:36:32;;;;;;;6.97;3.20;;;9.00;99.90;;;;;;4805768;29;20199;-76
2022/09/03 03:39:00;;;;;;;10.90;4.47;;;8.90;99.90;;;;;;4806161;29;20211;-76
2022/09/03 03:41:33;;;;;;;5.67;3.03;;;8.90;99.90;;;;;;4804402;29;20255;-75
2022/09/03 03:44:03;;;;;;;7.13;3.57;;;9.00;99.90;;;;;;4804695;29;20303;-76
2022/09/03 03:46:33;;;;;;;6.37;3.00;;;9.00;99.90;;;;;;4804662;29;20232;-76
2022/09/03 03:49:01;;;;;;;8.13;3.20;;;8.90;99.90;;;;;;4804635;29;20208;-76
2022/09/03 03:51:31;;;;;;;10.17;3.57;;;8.90;99.90;;;;;;4804272;29;20243;-76
2022/09/03 03:53:58;;;;;;;8.00;3.23;;;8.80;99.90;;;;;;4804518;29;20290;-77
2022/09/03 03:56:31;;;;;;;9.70;3.50;;;8.80;99.90;;;;;;4804522;29;20230;-76
2022/09/03 03:58:58;;;;;;;5.83;3.33;;;8.80;99.90;;;;;;4805583;29;20213;-76
2022/09/03 04:01:26;;;;;;;5.87;3.20;;;8.80;99.90;;;;;;4804499;29;20206;-76
2022/09/03 04:03:58;;;;;;;6.63;3.00;;;8.80;99.90;;;;;;4804480;29;20260;-77
2022/09/03 04:06:27;;;;;;;6.50;3.03;;;8.70;99.90;;;;;;4805479;29;20298;-77
2022/09/03 04:08:54;;;;;;;6.70;3.43;;;8.80;99.90;;;;;;4804535;29;20576;-76
2022/09/03 04:11:23;;;;;;;6.17;3.30;;;8.80;99.90;;;;;;4804551;29;20290;-76
2022/09/03 04:13:51;;;;;;;6.27;3.27;;;8.80;99.90;;;;;;4805492;29;20195;-75
2022/09/03 04:16:24;;;;;;;5.97;3.20;;;8.80;99.90;;;;;;4789669;29;20537;-76
2022/09/03 04:18:54;;;;;;;6.43;3.27;;;8.80;99.90;;;;;;4805462;29;20200;-76
2022/09/03 04:21:23;;;;;;;6.10;3.20;;;8.80;99.90;;;;;;4805567;29;20255;-76
2022/09/03 04:23:53;;;;;;;6.77;3.60;;;8.80;99.90;;;;;;4807671;29;20215;-76
2022/09/03 04:26:27;;;;;;;7.23;3.53;;;8.80;99.90;;;;;;4807572;29;20228;-76
2022/09/03 04:28:54;;;;;;;8.67;3.60;;;8.80;99.90;;;;;;4792958;29;20211;-76
2022/09/03 04:31:24;;;;;;;5.03;2.80;;;8.80;99.90;;;;;;4807702;29;20215;-76
2022/09/03 04:33:51;;;;;;;5.93;3.17;;;8.80;99.90;;;;;;4807655;29;20204;-76
2022/09/03 04:36:20;;;;;;;6.43;3.43;;;8.80;99.90;;;;;;4807470;29;20609;-76
2022/09/03 04:38:49;;;;;;;8.23;3.40;;;8.80;99.90;;;;;;4807293;29;20218;-76
2022/09/03 04:41:23;;;;;;;8.33;3.47;;;8.80;99.90;;;;;;4807191;29;20643;-76
2022/09/03 04:43:55;;;;;;;6.00;3.33;;;8.90;99.90;;;;;;4807201;29;20264;-76
2022/09/03 04:46:25;;;;;;;6.50;3.17;;;9.00;99.90;;;;;;4808745;29;20556;-76
2022/09/03 04:48:53;;;;;;;4.97;2.90;;;9.10;99.90;;;;;;4807492;29;20231;-76
2022/09/03 04:51:28;;;;;;;6.93;3.10;;;9.00;99.90;;;;;;4806913;29;20377;-76
2022/09/03 04:53:59;;;;;;;6.53;3.13;;;9.10;99.90;;;;;;4807434;29;20218;-76
2022/09/03 04:56:29;;;;;;;4.40;3.00;;;9.20;99.90;;;;;;4808539;29;20219;-76
2022/09/03 04:59:05;;;;;;;11.10;3.70;;;9.20;99.90;;;;;;4807428;29;20250;-75
2022/09/03 05:01:33;;;;;;;8.87;3.30;;;9.20;99.90;;;;;;4808094;29;20582;-75
2022/09/03 05:04:01;;;;;;;8.07;3.00;;;9.30;99.90;;;;;;4806997;29;20639;-75
2022/09/03 05:06:30;;;;;;;8.20;3.57;;;9.30;99.90;;;;;;4792176;29;20212;-76
2022/09/03 05:08:58;;;;;;;7.07;3.13;;;9.40;99.90;;;;;;4807003;29;20216;-75
2022/09/03 05:11:26;;;;;;;7.57;3.10;;;9.40;99.90;;;;;;4807307;29;20195;-76
2022/09/03 05:13:55;;;;;;;7.57;3.20;;;9.40;99.90;;;;;;4806926;29;20274;-76
2022/09/03 05:16:23;;;;;;;7.73;3.00;;;9.50;99.90;;;;;;4806816;29;20310;-75
2022/09/03 05:18:55;;;;;;;7.17;3.40;;;9.60;99.90;;;;;;4806756;29;20253;-75
2022/09/03 05:21:22;;;;;;;7.83;3.13;;;9.80;99.90;;;;;;4806701;29;20211;-76
2022/09/03 05:23:50;;;;;;;7.40;3.00;;;9.80;99.90;;;;;;4806883;29;20576;-76
2022/09/03 05:26:20;;;;;;;7.33;2.97;;;9.90;99.90;;;;;;4806933;29;20212;-77
2022/09/03 05:28:51;;;;;;;10.10;3.20;;;9.90;99.90;;;;;;4806544;29;20226;-77
2022/09/03 05:31:19;;;;;;;9.10;3.67;;;10.00;99.90;;;;;;4806585;29;20302;-77
2022/09/03 05:33:56;;;;;;;4.93;3.13;;;10.10;99.90;;;;;;4805698;29;20298;-76
2022/09/03 05:36:25;;;;;;;5.13;2.77;;;10.20;99.90;;;;;;4806515;29;20557;-76
2022/09/03 05:38:53;;;;;;;6.53;2.90;;;10.30;99.90;;;;;;4806251;29;20658;-76
2022/09/03 05:41:21;;;;;;;8.80;2.90;;;10.40;99.90;;;;;;4806366;29;20207;-76
2022/09/03 05:43:54;;;;;;;6.07;2.90;;;10.50;99.90;;;;;;4806317;29;20215;-75
2022/09/03 05:46:29;;;;;;;6.93;3.10;;;10.50;99.90;;;;;;4806183;29;20517;-76
2022/09/03 05:48:57;;;;;;;8.73;2.70;;;10.60;99.90;;;;;;4807555;29;20277;-75
2022/09/03 05:51:24;;;;;;;5.00;2.50;;;10.60;99.90;;;;;;4806048;29;20247;-77
2022/09/03 05:53:52;;;;;;;5.47;2.57;;;10.70;99.90;;;;;;4806405;29;20208;-77
2022/09/03 05:56:20;;;;;;;11.93;3.03;;;10.80;99.90;;;;;;4807374;29;20282;-78
2022/09/03 05:58:51;;;;;;;10.40;3.43;;;11.00;99.90;;;;;;4805963;29;20212;-78
2022/09/03 06:01:23;;;;;;;6.30;2.80;;;11.00;99.90;;;;;;4805906;29;20209;-78
2022/09/03 06:03:56;;;;;;;10.20;2.70;;;11.10;99.90;;;;;;4806242;29;20246;-79
2022/09/03 06:06:24;;;;;;;7.30;2.70;;;11.30;99.90;;;;;;4806146;29;20204;-77
2022/09/03 06:08:53;;;;;;;5.80;2.43;;;11.40;99.90;;;;;;4805810;29;20618;-77
2022/09/03 06:11:25;;;;;;;6.97;2.50;;;11.40;99.90;;;;;;4805673;29;20243;-77
2022/09/03 06:13:55;;;;;;;5.17;2.37;;;11.50;99.90;;;;;;4805642;29;20207;-77
2022/09/03 06:16:23;;;;;;;9.07;2.37;;;11.70;99.90;;;;;;4805849;29;20222;-77
2022/09/03 06:18:58;;;;;;;8.33;2.67;;;11.80;99.90;;;;;;4807372;29;20554;-77
2022/09/03 06:21:26;;;;;;;6.13;2.37;;;11.90;99.90;;;;;;4806943;29;20207;-77
2022/09/03 06:23:57;;;;;;;7.93;2.47;;;12.00;99.90;;;;;;4806755;29;20227;-76
2022/09/03 06:26:27;;;;;;;4.40;1.70;;;12.10;99.90;;;;;;4806999;29;20199;-77
2022/09/03 06:28:55;;;;;;;5.10;1.90;;;12.20;99.90;;;;;;4805447;29;20280;-76
2022/09/03 06:31:23;;;;;;;3.27;1.83;;;12.30;99.90;;;;;;4805792;29;20195;-76
2022/09/03 06:33:52;;;;;;;3.47;1.80;;;12.50;99.90;;;;;;4805552;29;20207;-77
2022/09/03 06:36:21;;;;;;;4.77;1.70;;;12.50;99.90;;;;;;4805371;29;20207;-76
2022/09/03 06:38:54;;;;;;;3.03;1.77;;;12.70;99.90;;;;;;4805530;29;20695;-76
2022/09/03 06:41:26;;;;;;;2.37;1.67;;;12.80;99.90;;;;;;4805396;29;20211;-77
2022/09/03 06:44:02;;;;;;;4.17;1.80;;;12.90;99.90;;;;;;4805122;29;20239;-78
2022/09/03 06:46:37;;;;;;;3.43;1.80;;;13.10;99.90;;;;;;4805317;29;20548;-75
2022/09/03 06:49:04;;;;;;;4.63;1.80;;;13.20;99.90;;;;;;4805241;29;20695;-77
2022/09/03 06:51:33;;;;;;;5.40;1.70;;;13.30;99.90;;;;;;4804923;29;20239;-77
2022/09/03 06:54:02;;;;;;;3.97;1.60;;;13.40;99.90;;;;;;4805126;29;20302;-78
2022/09/03 06:56:31;;;;;;;10.33;2.70;;;13.60;99.90;;;;;;4805116;29;20203;-78
2022/09/03 06:59:10;;;;;;;3.57;1.90;;;13.70;99.90;;;;;;4805055;29;20262;-77
2022/09/03 07:01:39;;;;;;;6.43;2.10;;;13.90;99.90;;;;;;4805202;29;20218;-74
2022/09/03 07:04:11;;;;;;;4.60;1.83;;;14.00;99.90;;;;;;4805059;29;20347;-73
2022/09/03 07:06:41;;;;;;;3.77;1.77;;;14.10;99.90;;;;;;4805219;29;20212;-75
2022/09/03 07:09:11;;;;;;;4.33;1.67;;;14.20;99.90;;;;;;4805177;29;20298;-74
2022/09/03 07:11:45;;;;;;;4.67;1.90;;;14.40;99.90;;;;;;4805043;29;20313;-75
2022/09/03 07:14:14;;;;;;;2.97;1.80;;;14.50;99.90;;;;;;4804726;29;20211;-73
2022/09/03 07:16:42;;;;;;;3.93;2.00;;;14.60;99.90;;;;;;4805291;29;20203;-73
2022/09/03 07:19:09;;;;;;;3.17;1.90;;;14.70;99.90;;;;;;4804992;29;20203;-74
2022/09/03 07:21:36;;;;;;;3.90;1.80;;;14.90;99.90;;;;;;4805771;29;20614;-74
2022/09/03 07:24:04;;;;;;;4.33;1.93;;;15.00;99.90;;;;;;4804544;29;20218;-73
2022/09/03 07:26:34;;;;;;;4.03;1.83;;;15.10;99.90;;;;;;4804946;29;20252;-74
2022/09/03 07:29:01;;;;;;;5.30;1.80;;;15.20;99.90;;;;;;4804533;29;20239;-75
2022/09/03 07:31:37;;;;;;;5.87;1.83;;;15.30;99.90;;;;;;4805069;29;20231;-75
2022/09/03 07:34:07;;;;;;;3.00;1.63;;;15.40;99.90;;;;;;4805888;29;20564;-71
2022/09/03 07:36:48;;;;;;;7.07;1.97;;;15.60;99.90;;;;;;4806126;29;20199;-73
2022/09/03 07:39:17;;;;;;;4.93;1.70;;;15.70;99.90;;;;;;4805785;29;20256;-72
2022/09/03 07:41:45;;;;;;;5.73;1.90;;;15.90;99.90;;;;;;4804488;29;20227;-72
2022/09/03 07:44:18;;;;;;;4.77;2.30;;;16.00;99.90;;;;;;4804930;29;20250;-75
2022/09/03 07:46:46;;;;;;;4.37;1.80;;;16.10;99.90;;;;;;4806018;29;20200;-73
2022/09/03 07:49:14;;;;;;;2.70;1.63;;;16.30;99.90;;;;;;4804691;29;20238;-74
2022/09/03 07:51:41;;;;;;;3.67;1.53;;;16.40;99.90;;;;;;4805642;29;20242;-74
2022/09/03 07:54:09;;;;;;;4.27;2.07;;;16.50;99.90;;;;;;4789716;29;20294;-74
2022/09/03 07:56:39;;;;;;;3.37;1.60;;;16.70;99.90;;;;;;4807411;29;20204;-76
2022/09/03 07:59:07;;;;;;;5.57;1.63;;;16.70;99.90;;;;;;4809418;29;20195;-71
2022/09/03 08:01:35;;;;;;;4.40;1.63;;;16.90;99.90;;;;;;4793342;29;20248;-73
2022/09/03 08:04:06;;;;;;;4.80;1.80;;;17.00;99.90;;;;;;4792781;29;20218;-73
2022/09/03 08:06:37;;;;;;;3.03;1.70;;;17.20;99.90;;;;;;4793014;29;20234;-70
2022/09/03 08:09:06;;;;;;;5.00;1.73;;;17.40;99.90;;;;;;4808922;29;20777;-73
2022/09/03 08:11:37;;;;;;;3.03;1.80;;;17.50;99.90;;;;;;4792883;29;20611;-72
2022/09/03 08:14:07;;;;;;;4.40;1.57;;;17.60;99.90;;;;;;4792839;29;20218;-72
2022/09/03 08:16:47;;;;;;;4.10;1.50;;;17.80;99.90;;;;;;4792910;29;20295;-72
2022/09/03 08:19:17;;;;;;;4.07;1.67;;;18.10;99.90;;;;;;4792762;29;20204;-71
2022/09/03 08:21:44;;;;;;;3.70;1.43;;;18.40;99.90;;;;;;4792428;29;20698;-73
2022/09/03 08:24:13;;;;;;;3.23;1.40;;;18.80;99.90;;;;;;4793044;29;20313;-72
2022/09/03 08:26:41;;;;;;;3.90;1.47;;;19.30;99.90;;;;;;4808989;29;20559;-72
2022/09/03 08:29:13;;;;;;;10.17;1.90;;;19.80;98.10;;;;;;4792345;29;20224;-72
2022/09/03 08:31:40;;;;;;;4.10;1.40;;;20.80;95.50;;;;;;4792621;29;20227;-69
2022/09/03 08:34:09;;;;;;;2.90;1.50;;;22.00;91.60;;;;;;4792700;29;20211;-72
2022/09/03 08:36:40;;;;;;;4.70;1.40;;;22.80;87.50;;;;;;4792268;29;20235;-73
2022/09/03 08:39:08;;;;;;;3.13;1.30;;;23.40;82.70;;;;;;4792484;29;20211;-74
2022/09/03 08:41:42;;;;;;;4.47;1.60;;;23.70;78.50;;;;;;4792725;29;20214;-69
2022/09/03 08:44:40;;;;;;;4.37;1.60;;;24.00;73.40;;;;;;4792356;29;20662;-68
2022/09/03 08:47:16;;;;;;;1.77;1.40;;;24.50;72.30;;;;;;4792399;29;20570;-73
2022/09/03 08:50:04;;;;;;;2.63;1.50;;;24.90;67.90;;;;;;4792258;29;20206;-76
2022/09/03 08:52:50;;;;;;;2.43;1.30;;;24.80;65.60;;;;;;4792376;29;20566;-75
2022/09/03 08:55:47;;;;;;;3.10;1.50;;;25.00;63.30;;;;;;4792343;29;20238;-72
2022/09/03 08:58:17;;;;;;;3.58;1.50;;;25.20;61.40;;;;;;4737816;30;20213;-73
2022/09/03 09:00:49;;;;;;;3.15;1.33;;;25.30;60.30;;;;;;4737746;30;20209;-74
2022/09/03 09:03:48;;;;;;;3.75;1.35;;;25.40;59.90;;;;;;4752276;30;20301;-75
2022/09/03 09:06:47;;;;;;;2.38;1.40;;;25.90;59.70;;;;;;4737676;30;20213;-72
2022/09/03 09:09:23;;;;;;;4.50;1.80;;;26.00;57.80;;;;;;4752062;30;20332;-71
2022/09/03 09:12:00;;;;;;;3.40;1.30;;;25.70;59.10;;;;;;4737860;30;20219;-72
2022/09/03 09:14:48;;;;;;;3.85;1.40;;;25.90;58.10;;;;;;4752012;30;20220;-69
2022/09/03 09:17:31;;;;;;;4.25;1.30;;;25.90;56.40;;;;;;4737380;30;20296;-75
2022/09/03 09:20:20;;;;;;;2.85;1.27;;;25.70;56.30;;;;;;4737402;30;20233;-77
2022/09/03 09:22:53;;;;;;;5.38;1.30;;;25.80;56.70;;;;;;4752474;30;20236;-79
2022/09/03 09:25:23;;;;;;;3.35;1.20;;;26.00;55.10;;;;;;4738101;30;20787;-80
2022/09/03 09:28:10;;;;;;;3.55;1.50;;;25.80;55.60;;;;;;4736415;29;20527;-74
2022/09/03 09:30:37;;;;;;;6.45;1.85;;;26.00;54.40;;;;;;4752191;30;20213;-77
2022/09/03 09:33:04;;;;;;;3.25;1.10;;;26.10;54.10;;;;;;4751668;30;20212;-73
2022/09/03 09:35:31;;;;;;;1.85;1.00;;;26.40;53.90;;;;;;4775437;29;20624;-73
2022/09/03 09:37:59;;;;;;;1.77;1.15;;;26.70;52.70;;;;;;4791553;29;20218;-76
2022/09/03 09:40:31;;;;;;;1.70;1.20;;;26.80;52.20;;;;;;4807947;29;20282;-75
2022/09/03 09:43:20;;;;;;;2.90;1.20;;;26.80;51.00;;;;;;4791366;29;20476;-78
2022/09/03 09:45:49;;;;;;;2.22;1.30;;;26.90;51.20;;;;;;4793360;29;20442;-73
2022/09/03 09:48:20;;;;;;;3.75;1.40;;;27.20;51.90;;;;;;4791266;29;20238;-73
2022/09/03 09:50:48;;;;;;;2.75;1.20;;;27.40;50.50;;;;;;4793364;29;20248;-76
2022/09/03 09:53:20;;;;;;;11.45;1.98;;;27.70;50.30;;;;;;4806542;29;20587;-75
2022/09/03 09:55:53;;;;;;;6.00;1.27;;;28.00;49.80;;;;;;4806543;29;20212;-77
2022/09/03 09:58:22;;;;;;;2.63;1.00;;;28.40;49.10;;;;;;4806201;29;20310;-76
2022/09/03 10:01:11;;;;;;;2.40;0.93;;;28.50;47.00;;;;;;4805966;29;20204;-73
2022/09/03 10:03:56;;;;;;;2.17;1.00;;;28.30;48.00;;;;;;4805918;29;20220;-74
2022/09/03 10:09:14;;;;;;;2.83;1.00;;;28.70;47.60;;;;;;4805732;29;20231;-73
2022/09/03 10:12:01;;;;;;;1.88;1.00;;;28.90;46.10;;;;;;4805555;29;20235;-72
2022/09/03 10:14:46;;;;;;;2.38;1.17;;;29.20;45.80;;;;;;4805506;29;20239;-69
2022/09/03 10:17:20;;;;;;;1.83;0.90;;;29.10;46.40;;;;;;4805644;29;20206;-68
2022/09/03 10:20:35;;;;;;;4.53;0.93;;;28.80;46.30;;;;;;4806162;29;20204;-72
2022/09/03 10:23:17;;;;;;;3.58;1.20;;;29.10;46.10;;;;;;4753776;30;20733;-70
2022/09/03 10:26:08;;;;;;;1.42;0.98;;;29.10;45.30;;;;;;4754169;30;20215;-73
2022/09/03 10:28:40;;;;;;;1.40;0.95;;;28.90;44.80;;;;;;4754249;30;20819;-75
2022/09/03 10:31:32;;;;;;;2.20;1.10;;;29.00;45.40;;;;;;4754028;30;20204;-72
2022/09/03 10:34:22;;;;;;;2.13;0.95;;;29.40;45.90;;;;;;4753618;30;20220;-72
2022/09/03 10:36:55;;;;;;;1.13;0.90;;;29.80;44.50;;;;;;4768925;30;20638;-68
2022/09/03 10:39:34;;;;;;;3.28;1.00;;;29.80;44.20;;;;;;4753836;30;20205;-73
2022/09/03 10:43:03;;;;;;;1.27;0.80;;;29.80;43.40;;;;;;4753479;30;20830;-73
2022/09/03 10:45:38;;;;;;;1.83;0.93;;;29.90;43.60;;;;;;4718723;30;20301;-73
2022/09/03 10:48:07;;;;;;;3.03;1.02;;;30.00;44.30;;;;;;4732885;30;20318;-74
2022/09/03 10:50:54;;;;;;;2.83;1.10;;;30.50;43.30;;;;;;4732691;30;20562;-74
2022/09/03 10:53:36;;;;;;;4.85;0.90;;;30.40;42.90;;;;;;4718143;30;20213;-76
2022/09/03 10:56:26;;;;;;;3.10;0.80;;;30.50;42.60;;;;;;4718309;30;20217;-76
2022/09/03 10:59:22;;;;;;;1.73;0.90;;;30.90;41.70;;;;;;4718100;30;20216;-77
2022/09/03 11:01:57;;;;;;;1.55;0.90;;;30.90;41.20;;;;;;4753375;30;20263;-75
2022/09/03 11:04:50;;;;;;;4.28;0.95;;;31.20;41.30;;;;;;4768236;30;20216;-72
2022/09/03 11:07:22;;;;;;;1.52;0.90;;;31.10;41.20;;;;;;4768106;30;20291;-75
2022/09/03 11:10:25;;;;;;;1.83;1.00;;;30.90;41.50;;;;;;4753107;30;20229;-76
2022/09/03 11:13:09;;;;;;;1.63;1.00;;;31.00;41.30;;;;;;4753287;30;20575;-74
2022/09/03 11:15:50;;;;;;;1.05;0.90;;;30.80;42.10;;;;;;4768148;30;20675;-75
2022/09/03 11:18:29;;;;;;;3.50;1.05;;;30.80;42.20;;;;;;4768497;30;20577;-76
2022/09/03 11:21:03;;;;;;;1.08;0.80;;;31.00;42.30;;;;;;4802422;29;20300;-73
2022/09/03 11:23:39;;;;;;;1.30;0.90;;;31.30;41.30;;;;;;4804735;29;20211;-74
2022/09/03 11:26:11;;;;;;;4.93;1.35;;;31.40;41.30;;;;;;4804910;29;20257;-76
2022/09/03 11:29:14;;;;;;;1.15;1.00;;;31.80;40.90;;;;;;4804724;29;20242;-72
2022/09/03 11:31:49;;;;;;;1.75;0.98;;;32.20;40.70;;;;;;4804856;29;20721;-74
2022/09/03 11:34:31;;;;;;;1.48;1.00;;;33.00;40.20;;;;;;4804540;29;20276;-73
2022/09/03 11:37:21;;;;;;;7.10;1.42;;;33.20;39.40;;;;;;4804426;29;20238;-73
2022/09/03 11:40:06;;;;;;;2.10;1.00;;;33.70;38.10;;;;;;4804610;29;20199;-73
2022/09/03 11:42:37;;;;;;;1.73;1.02;;;33.70;38.40;;;;;;4804491;29;20215;-73
2022/09/03 11:45:22;;;;;;;2.30;0.90;;;34.30;37.50;;;;;;4804900;29;20555;-72
2022/09/03 11:47:50;;;;;;;2.40;0.90;;;34.40;37.30;;;;;;4804677;29;20294;-74
2022/09/03 11:50:19;;;;;;;1.67;0.80;;;34.90;37.20;;;;;;4804332;29;20228;-73
2022/09/03 11:52:52;;;;;;;1.60;0.70;;;35.30;36.10;;;;;;4789481;29;20211;-74
2022/09/03 11:55:45;;;;;;;2.45;0.90;;;35.40;35.40;;;;;;4789579;29;20211;-72
2022/09/03 11:58:28;;;;;;;2.00;1.00;;;35.60;35.80;;;;;;4805603;29;20229;-73
2022/09/03 12:00:57;;;;;;;1.70;0.75;;;35.80;34.90;;;;;;4789556;29;20207;-73
2022/09/03 12:03:29;;;;;;;2.70;0.85;;;36.00;34.60;;;;;;4788684;29;20294;-73
2022/09/03 12:06:05;;;;;;;1.50;0.75;;;35.80;34.50;;;;;;4803753;29;20204;-73
2022/09/03 12:09:02;;;;;;;0.98;0.75;;;35.90;34.90;;;;;;4786786;29;20233;-74
2022/09/03 12:11:50;;;;;;;2.60;0.75;;;35.90;34.60;;;;;;4803840;29;20306;-73
2022/09/03 12:14:46;;;;;;;1.00;0.75;;;35.60;34.40;;;;;;4788995;29;20295;-73
2022/09/03 12:17:27;;;;;;;2.47;0.80;;;35.70;34.10;;;;;;4787999;29;20298;-72
2022/09/03 12:19:56;;;;;;;3.40;1.00;;;35.70;34.10;;;;;;4787912;29;20212;-73
2022/09/03 12:22:29;;;;;;;1.58;0.70;;;35.90;36.50;;;;;;4803210;29;20303;-75
2022/09/03 12:25:13;;;;;;;2.17;0.90;;;35.60;38.40;;;;;;4789385;29;20207;-71
2022/09/03 12:27:45;;;;;;;2.00;0.80;;;35.00;39.10;;;;;;4810154;29;20207;-73
2022/09/03 12:30:20;;;;;;;1.73;0.90;;;34.40;42.30;;;;;;4797374;29;20310;-74
2022/09/03 12:32:50;;;;;;;3.38;0.82;;;33.70;44.50;;;;;;4799154;29;20211;-70
2022/09/03 12:35:20;;;;;;;1.70;0.90;;;33.00;45.50;;;;;;4802647;29;20218;-72
2022/09/03 12:38:07;;;;;;;1.67;0.98;;;32.60;42.60;;;;;;4785627;29;20207;-72
2022/09/03 12:40:42;;;;;;;1.60;0.90;;;32.50;43.20;;;;;;4803370;29;20268;-72
2022/09/03 12:43:30;;;;;;;1.88;0.95;;;32.30;44.70;;;;;;4790682;29;20230;-75
2022/09/03 12:46:13;;;;;;;2.97;1.00;;;32.60;41.10;;;;;;4806712;29;20636;-73
2022/09/03 12:48:53;;;;;;;3.78;0.90;;;32.50;41.90;;;;;;4791400;29;20279;-73
2022/09/03 12:51:42;;;;;;;1.38;0.80;;;32.40;42.40;;;;;;4790716;29;20603;-72
2022/09/03 12:54:24;;;;;;;1.08;0.85;;;32.00;42.30;;;;;;4781614;29;20235;-72
2022/09/03 12:56:56;;;;;;;1.95;1.00;;;31.30;42.20;;;;;;4773993;30;20223;-71
2022/09/03 12:59:28;;;;;;;4.30;1.00;;;31.20;43.00;;;;;;4774094;30;20213;-72
2022/09/03 13:01:59;;;;;;;3.58;1.15;;;31.10;43.20;;;;;;4788943;30;20562;-71
2022/09/03 13:04:35;;;;;;;1.67;0.82;;;30.80;43.90;;;;;;4789029;30;20655;-73
2022/09/03 13:07:07;;;;;;;1.65;0.90;;;30.40;44.00;;;;;;4788750;30;20306;-72
2022/09/03 13:09:36;;;;;;;1.65;1.08;;;29.80;44.70;;;;;;4788630;30;20228;-72
2022/09/03 13:12:04;;;;;;;2.28;1.20;;;29.50;43.60;;;;;;4788604;30;20228;-71
2022/09/03 13:14:46;;;;;;;1.90;1.02;;;28.90;43.80;;;;;;4789447;30;20669;-71
2022/09/03 13:17:36;;;;;;;1.30;0.90;;;28.40;46.60;;;;;;4788953;30;20223;-72
2022/09/03 13:20:41;;;;;;;1.77;1.10;;;27.70;46.10;;;;;;4773652;30;20292;-73
2022/09/03 13:23:33;;;;;;;3.80;1.20;;;27.00;45.70;;;;;;4789884;30;20621;-72
2022/09/03 13:26:18;;;;;;;2.47;1.00;;;26.40;46.70;;;;;;4773504;30;20303;-74
2022/09/03 13:29:10;;;;;;;3.13;1.23;;;26.10;47.10;;;;;;4788434;30;20751;-74
2022/09/03 13:31:43;;;;;;;1.98;1.05;;;25.90;47.30;;;;;;4788422;30;20200;-73